sensor_id;sensor_type;location;lat;lon;timestamp;pressure;altitude;pressure_sealevel;temperature;humidity
50057;BME280;36875;49.468;11.200;2023-03-01T00:00:35;98819.56;;;18.47;34.94
50057;BME280;36875;49.468;11.200;2023-03-01T00:03:01;98820.41;;;18.42;35.02
50057;BME280;36875;49.468;11.200;2023-03-01T00:05:26;98822.84;;;18.44;34.51
50057;BME280;36875;49.468;11.200;2023-03-01T00:07:52;98820.13;;;18.44;34.86
50057;BME280;36875;49.468;11.200;2023-03-01T00:10:19;98823.13;;;18.42;34.51
50057;BME280;36875;49.468;11.200;2023-03-01T00:12:44;98819.06;;;18.40;34.77
50057;BME280;36875;49.468;11.200;2023-03-01T00:15:10;98824.22;;;18.41;34.74
50057;BME280;36875;49.468;11.200;2023-03-01T00:17:37;98823.41;;;18.41;34.80
50057;BME280;36875;49.468;11.200;2023-03-01T00:20:03;98826.41;;;18.39;34.64
50057;BME280;36875;49.468;11.200;2023-03-01T00:22:28;98826.41;;;18.39;34.74
50057;BME280;36875;49.468;11.200;2023-03-01T00:24:54;98822.06;;;18.33;34.58
50057;BME280;36875;49.468;11.200;2023-03-01T00:27:21;98816.63;;;18.33;34.69
50057;BME280;36875;49.468;11.200;2023-03-01T00:29:46;98826.16;;;18.36;34.37
50057;BME280;36875;49.468;11.200;2023-03-01T00:32:12;98828.34;;;18.34;34.38
50057;BME280;36875;49.468;11.200;2023-03-01T00:34:37;98813.09;;;18.33;34.53
50057;BME280;36875;49.468;11.200;2023-03-01T00:37:03;98804.09;;;18.32;34.67
50057;BME280;36875;49.468;11.200;2023-03-01T00:39:31;98816.91;;;18.32;34.71
50057;BME280;36875;49.468;11.200;2023-03-01T00:41:56;98812.53;;;18.30;34.66
50057;BME280;36875;49.468;11.200;2023-03-01T00:44:23;98815.25;;;18.30;34.71
50057;BME280;36875;49.468;11.200;2023-03-01T00:46:48;98815.25;;;18.30;34.33
50057;BME280;36875;49.468;11.200;2023-03-01T00:49:14;98812.00;;;18.28;34.60
50057;BME280;36875;49.468;11.200;2023-03-01T00:51:39;98810.38;;;18.27;34.25
50057;BME280;36875;49.468;11.200;2023-03-01T00:54:08;98810.38;;;18.27;34.47
50057;BME280;36875;49.468;11.200;2023-03-01T00:56:33;98804.41;;;18.25;34.44
50057;BME280;36875;49.468;11.200;2023-03-01T00:58:59;98799.50;;;18.22;34.42
50057;BME280;36875;49.468;11.200;2023-03-01T01:01:28;98789.13;;;18.24;34.18
50057;BME280;36875;49.468;11.200;2023-03-01T01:03:58;98790.78;;;18.20;34.39
50057;BME280;36875;49.468;11.200;2023-03-01T01:06:25;98795.69;;;18.23;34.26
50057;BME280;36875;49.468;11.200;2023-03-01T01:08:52;98789.97;;;18.20;34.37
50057;BME280;36875;49.468;11.200;2023-03-01T01:11:19;98785.34;;;18.20;34.14
50057;BME280;36875;49.468;11.200;2023-03-01T01:13:47;98782.63;;;18.20;34.43
50057;BME280;36875;49.468;11.200;2023-03-01T01:16:13;98779.91;;;18.15;34.40
50057;BME280;36875;49.468;11.200;2023-03-01T01:18:40;98771.47;;;18.17;34.00
50057;BME280;36875;49.468;11.200;2023-03-01T01:21:07;98776.63;;;18.18;34.15
50057;BME280;36875;49.468;11.200;2023-03-01T01:23:33;98775.00;;;18.17;34.39
50057;BME280;36875;49.468;11.200;2023-03-01T01:26:03;98769.53;;;18.17;34.26
50057;BME280;36875;49.468;11.200;2023-03-01T01:28:28;98768.19;;;18.15;34.42
50057;BME280;36875;49.468;11.200;2023-03-01T01:30:54;98767.41;;;18.14;34.09
50057;BME280;36875;49.468;11.200;2023-03-01T01:33:19;98759.50;;;18.13;34.13
50057;BME280;36875;49.468;11.200;2023-03-01T01:35:46;98752.41;;;18.11;33.94
50057;BME280;36875;49.468;11.200;2023-03-01T01:38:11;98754.31;;;18.11;34.28
50057;BME280;36875;49.468;11.200;2023-03-01T01:40:43;98755.41;;;18.10;33.80
50057;BME280;36875;49.468;11.200;2023-03-01T01:43:14;98748.06;;;18.10;34.01
50057;BME280;36875;49.468;11.200;2023-03-01T01:45:42;98745.63;;;18.09;33.88
50057;BME280;36875;49.468;11.200;2023-03-01T01:48:12;98746.69;;;18.08;33.93
50057;BME280;36875;49.468;11.200;2023-03-01T01:50:40;98737.19;;;18.05;34.17
50057;BME280;36875;49.468;11.200;2023-03-01T01:53:10;98735.25;;;18.06;33.92
50057;BME280;36875;49.468;11.200;2023-03-01T01:55:41;98732.53;;;18.06;33.65
50057;BME280;36875;49.468;11.200;2023-03-01T01:58:09;98735.25;;;18.06;34.00
50057;BME280;36875;49.468;11.200;2023-03-01T02:00:37;98732.00;;;18.04;34.11
50057;BME280;36875;49.468;11.200;2023-03-01T02:03:06;98726.84;;;18.02;34.03
50057;BME280;36875;49.468;11.200;2023-03-01T02:05:37;98723.31;;;18.02;34.02
50057;BME280;36875;49.468;11.200;2023-03-01T02:08:12;98724.38;;;18.01;34.09
50057;BME280;36875;49.468;11.200;2023-03-01T02:10:39;98721.66;;;18.01;33.74
50057;BME280;36875;49.468;11.200;2023-03-01T02:13:06;98720.84;;;18.00;33.63
50057;BME280;36875;49.468;11.200;2023-03-01T02:15:32;98716.78;;;17.98;33.58
50057;BME280;36875;49.468;11.200;2023-03-01T02:17:58;98709.44;;;17.98;33.73
50057;BME280;36875;49.468;11.200;2023-03-01T02:20:29;98703.44;;;17.96;33.94
50057;BME280;36875;49.468;11.200;2023-03-01T02:22:58;98701.53;;;17.97;33.82
50057;BME280;36875;49.468;11.200;2023-03-01T02:25:31;98702.59;;;17.96;33.62
50057;BME280;36875;49.468;11.200;2023-03-01T02:28:04;98699.88;;;17.96;33.93
50057;BME280;36875;49.468;11.200;2023-03-01T02:30:34;98697.47;;;17.94;33.84
50057;BME280;36875;49.468;11.200;2023-03-01T02:33:00;98697.75;;;17.92;33.64
50057;BME280;36875;49.468;11.200;2023-03-01T02:35:30;98695.00;;;17.92;33.59
50057;BME280;36875;49.468;11.200;2023-03-01T02:37:57;98685.19;;;17.91;33.53
50057;BME280;36875;49.468;11.200;2023-03-01T02:40:27;98694.47;;;17.90;33.66
50057;BME280;36875;49.468;11.200;2023-03-01T02:42:55;98693.66;;;17.90;33.75
50057;BME280;36875;49.468;11.200;2023-03-01T02:45:21;98689.03;;;17.90;33.48
50057;BME280;36875;49.468;11.200;2023-03-01T02:47:48;98687.38;;;17.89;33.63
50057;BME280;36875;49.468;11.200;2023-03-01T02:50:25;98686.84;;;17.87;33.45
50057;BME280;36875;49.468;11.200;2023-03-01T02:53:03;98675.97;;;17.87;33.63
50057;BME280;36875;49.468;11.200;2023-03-01T02:55:31;98676.47;;;17.84;33.72
50057;BME280;36875;49.468;11.200;2023-03-01T02:57:56;98666.69;;;17.83;33.78
50057;BME280;36875;49.468;11.200;2023-03-01T03:00:24;98670.22;;;17.84;33.43
50057;BME280;36875;49.468;11.200;2023-03-01T03:02:53;98674.63;;;17.85;33.80
50057;BME280;36875;49.468;11.200;2023-03-01T03:05:21;98678.41;;;17.84;33.29
50057;BME280;36875;49.468;11.200;2023-03-01T03:07:48;98671.88;;;17.80;33.64
50057;BME280;36875;49.468;11.200;2023-03-01T03:10:15;98670.50;;;17.82;33.76
50057;BME280;36875;49.468;11.200;2023-03-01T03:12:41;98670.50;;;17.82;33.36
50057;BME280;36875;49.468;11.200;2023-03-01T03:15:08;98664.53;;;17.80;33.35
50057;BME280;36875;49.468;11.200;2023-03-01T03:17:35;98661.81;;;17.80;33.64
50057;BME280;36875;49.468;11.200;2023-03-01T03:20:02;98653.66;;;17.75;33.35
50057;BME280;36875;49.468;11.200;2023-03-01T03:22:29;98656.63;;;17.79;33.26
50057;BME280;36875;49.468;11.200;2023-03-01T03:24:54;98658.53;;;17.78;33.74
50057;BME280;36875;49.468;11.200;2023-03-01T03:27:19;98656.91;;;17.77;33.21
50057;BME280;36875;49.468;11.200;2023-03-01T03:29:45;98651.75;;;17.76;33.63
50057;BME280;36875;49.468;11.200;2023-03-01T03:32:11;98653.66;;;17.75;33.70
50057;BME280;36875;49.468;11.200;2023-03-01T03:34:36;98652.03;;;17.74;33.46
50057;BME280;36875;49.468;11.200;2023-03-01T03:37:03;98649.59;;;17.72;33.41
50057;BME280;36875;49.468;11.200;2023-03-01T03:39:28;98652.03;;;17.74;33.16
50057;BME280;36875;49.468;11.200;2023-03-01T03:42:00;98655.03;;;17.72;33.30
50057;BME280;36875;49.468;11.200;2023-03-01T03:44:25;98656.94;;;17.72;33.21
50057;BME280;36875;49.468;11.200;2023-03-01T03:46:51;98646.31;;;17.70;33.21
50057;BME280;36875;49.468;11.200;2023-03-01T03:49:16;98649.59;;;17.67;33.26
50057;BME280;36875;49.468;11.200;2023-03-01T03:51:44;98649.31;;;17.69;33.16
50057;BME280;36875;49.468;11.200;2023-03-01T03:54:11;98644.97;;;17.68;33.23
50057;BME280;36875;49.468;11.200;2023-03-01T03:56:37;98647.69;;;17.68;33.22
50057;BME280;36875;49.468;11.200;2023-03-01T03:59:02;98638.97;;;17.66;33.11
50057;BME280;36875;49.468;11.200;2023-03-01T04:01:28;98645.25;;;17.66;33.14
50057;BME280;36875;49.468;11.200;2023-03-01T04:03:53;98645.25;;;17.66;33.19
50057;BME280;36875;49.468;11.200;2023-03-01T04:06:19;98640.09;;;17.65;33.44
50057;BME280;36875;49.468;11.200;2023-03-01T04:08:45;98641.97;;;17.64;33.55
50057;BME280;36875;49.468;11.200;2023-03-01T04:11:12;98646.63;;;17.64;33.09
50057;BME280;36875;49.468;11.200;2023-03-01T04:13:55;98655.88;;;17.63;33.06
50057;BME280;36875;49.468;11.200;2023-03-01T04:16:21;98662.41;;;17.62;33.39
50057;BME280;36875;49.468;11.200;2023-03-01T04:18:47;98656.16;;;17.61;32.98
50057;BME280;36875;49.468;11.200;2023-03-01T04:21:12;98653.97;;;17.58;33.40
50057;BME280;36875;49.468;11.200;2023-03-01T04:23:38;98659.97;;;17.60;33.35
50057;BME280;36875;49.468;11.200;2023-03-01T04:26:06;98658.34;;;17.59;32.89
50057;BME280;36875;49.468;11.200;2023-03-01T04:28:35;98653.19;;;17.58;33.41
50057;BME280;36875;49.468;11.200;2023-03-01T04:31:03;98653.19;;;17.58;32.86
50057;BME280;36875;49.468;11.200;2023-03-01T04:33:38;98656.97;;;17.57;33.11
50057;BME280;36875;49.468;11.200;2023-03-01T04:36:03;98655.91;;;17.52;33.07
50057;BME280;36875;49.468;11.200;2023-03-01T04:38:30;98660.81;;;17.56;33.11
50057;BME280;36875;49.468;11.200;2023-03-01T04:40:55;98665.41;;;17.55;32.93
50057;BME280;36875;49.468;11.200;2023-03-01T04:43:21;98664.59;;;17.54;33.37
50057;BME280;36875;49.468;11.200;2023-03-01T04:45:48;98655.09;;;17.52;33.19
50057;BME280;36875;49.468;11.200;2023-03-01T04:48:13;98658.63;;;17.52;32.91
50057;BME280;36875;49.468;11.200;2023-03-01T04:50:39;98656.97;;;17.51;33.22
50057;BME280;36875;49.468;11.200;2023-03-01T04:53:04;98653.47;;;17.51;33.10
50057;BME280;36875;49.468;11.200;2023-03-01T04:55:30;98651.84;;;17.50;33.11
50057;BME280;36875;49.468;11.200;2023-03-01T04:57:56;98651.00;;;17.49;32.92
50057;BME280;36875;49.468;11.200;2023-03-01T05:00:22;98659.16;;;17.49;32.84
50057;BME280;36875;49.468;11.200;2023-03-01T05:02:51;98657.56;;;17.48;33.11
50057;BME280;36875;49.468;11.200;2023-03-01T05:05:22;98653.47;;;17.46;33.15
50057;BME280;36875;49.468;11.200;2023-03-01T05:07:51;98653.47;;;17.46;32.82
50057;BME280;36875;49.468;11.200;2023-03-01T05:10:17;98648.88;;;17.46;33.09
50057;BME280;36875;49.468;11.200;2023-03-01T05:12:42;98644.75;;;17.44;33.11
50057;BME280;36875;49.468;11.200;2023-03-01T05:15:08;98643.97;;;17.43;33.14
50057;BME280;36875;49.468;11.200;2023-03-01T05:17:34;98639.59;;;17.42;33.03
50057;BME280;36875;49.468;11.200;2023-03-01T05:20:01;98637.97;;;17.41;32.84
50057;BME280;36875;49.468;11.200;2023-03-01T05:22:28;98644.22;;;17.42;33.03
50057;BME280;36875;49.468;11.200;2023-03-01T05:24:54;98633.34;;;17.37;33.10
50057;BME280;36875;49.468;11.200;2023-03-01T05:27:20;98640.16;;;17.39;32.94
50057;BME280;36875;49.468;11.200;2023-03-01T05:29:47;98633.66;;;17.35;33.00
50057;BME280;36875;49.468;11.200;2023-03-01T05:32:13;98642.88;;;17.39;32.93
50057;BME280;36875;49.468;11.200;2023-03-01T05:34:41;98642.34;;;17.37;32.97
50057;BME280;36875;49.468;11.200;2023-03-01T05:37:08;98636.91;;;17.37;32.74
50057;BME280;36875;49.468;11.200;2023-03-01T05:39:34;98645.06;;;17.37;33.04
50057;BME280;36875;49.468;11.200;2023-03-01T05:42:00;98642.63;;;17.36;32.89
50057;BME280;36875;49.468;11.200;2023-03-01T05:44:27;98632.81;;;17.29;33.14
50057;BME280;36875;49.468;11.200;2023-03-01T05:46:53;98639.38;;;17.33;32.67
50057;BME280;36875;49.468;11.200;2023-03-01T05:49:19;98633.94;;;17.33;32.79
50057;BME280;36875;49.468;11.200;2023-03-01T05:51:48;98633.38;;;17.31;32.92
50057;BME280;36875;49.468;11.200;2023-03-01T05:54:15;98633.66;;;17.30;32.83
50057;BME280;36875;49.468;11.200;2023-03-01T05:56:41;98632.56;;;17.31;32.56
50057;BME280;36875;49.468;11.200;2023-03-01T05:59:06;98630.09;;;17.29;32.85
50057;BME280;36875;49.468;11.200;2023-03-01T06:01:32;98630.09;;;17.29;32.66
50057;BME280;36875;49.468;11.200;2023-03-01T06:03:58;98627.69;;;17.28;32.76
50057;BME280;36875;49.468;11.200;2023-03-01T06:06:24;98623.59;;;17.25;32.83
50057;BME280;36875;49.468;11.200;2023-03-01T06:08:50;98624.41;;;17.26;32.92
50057;BME280;36875;49.468;11.200;2023-03-01T06:11:17;98623.59;;;17.25;32.76
50057;BME280;36875;49.468;11.200;2023-03-01T06:13:43;98624.97;;;17.23;32.87
50057;BME280;36875;49.468;11.200;2023-03-01T06:16:09;98622.25;;;17.23;32.99
50057;BME280;36875;49.468;11.200;2023-03-01T06:18:35;98611.91;;;17.20;32.98
50057;BME280;36875;49.468;11.200;2023-03-01T06:21:00;98619.81;;;17.21;32.84
50057;BME280;36875;49.468;11.200;2023-03-01T06:23:26;98624.16;;;17.22;32.77
50057;BME280;36875;49.468;11.200;2023-03-01T06:25:51;98616.28;;;17.21;32.98
50057;BME280;36875;49.468;11.200;2023-03-01T06:28:18;98617.88;;;17.22;33.34
50057;BME280;36875;49.468;11.200;2023-03-01T06:30:44;98615.44;;;17.20;33.15
50057;BME280;36875;49.468;11.200;2023-03-01T06:33:10;98611.09;;;17.19;33.19
50057;BME280;36875;49.468;11.200;2023-03-01T06:35:35;98614.91;;;17.18;33.39
50057;BME280;36875;49.468;11.200;2023-03-01T06:38:03;98618.47;;;17.19;33.74
50057;BME280;36875;49.468;11.200;2023-03-01T06:40:29;98611.91;;;17.14;33.74
50057;BME280;36875;49.468;11.200;2023-03-01T06:42:56;98614.94;;;17.13;33.92
50057;BME280;36875;49.468;11.200;2023-03-01T06:45:24;98613.56;;;17.10;33.79
50057;BME280;36875;49.468;11.200;2023-03-01T06:47:50;98614.09;;;17.12;33.82
50057;BME280;36875;49.468;11.200;2023-03-01T06:50:16;98605.66;;;17.14;33.51
50057;BME280;36875;49.468;11.200;2023-03-01T06:52:42;98604.59;;;17.10;33.63
50057;BME280;36875;49.468;11.200;2023-03-01T06:55:10;98610.03;;;17.15;33.78
50057;BME280;36875;49.468;11.200;2023-03-01T06:57:36;98614.09;;;17.18;33.51
50057;BME280;36875;49.468;11.200;2023-03-01T07:00:01;98605.13;;;17.17;33.63
50057;BME280;36875;49.468;11.200;2023-03-01T07:02:28;98612.44;;;17.17;33.64
50057;BME280;36875;49.468;11.200;2023-03-01T07:04:54;98608.66;;;17.18;33.99
50057;BME280;36875;49.468;11.200;2023-03-01T07:07:19;98610.00;;;17.20;34.11
50057;BME280;36875;49.468;11.200;2023-03-01T07:09:45;98601.56;;;17.17;34.45
50057;BME280;36875;49.468;11.200;2023-03-01T07:12:11;98601.31;;;17.18;34.46
50057;BME280;36875;49.468;11.200;2023-03-01T07:14:36;98603.75;;;17.25;34.32
50057;BME280;36875;49.468;11.200;2023-03-01T07:17:02;98601.56;;;17.27;34.30
50057;BME280;36875;49.468;11.200;2023-03-01T07:19:29;98602.63;;;17.26;34.35
50057;BME280;36875;49.468;11.200;2023-03-01T07:21:54;98593.66;;;17.30;34.99
50057;BME280;36875;49.468;11.200;2023-03-01T07:24:21;98596.06;;;17.42;35.14
50057;BME280;36875;49.468;11.200;2023-03-01T07:26:48;98594.09;;;17.58;34.45
50057;BME280;36875;49.468;11.200;2023-03-01T07:29:13;98588.28;;;17.80;34.33
50057;BME280;36875;49.468;11.200;2023-03-01T07:31:39;98587.13;;;18.02;34.05
50057;BME280;36875;49.468;11.200;2023-03-01T07:34:04;98585.94;;;18.18;33.77
50057;BME280;36875;49.468;11.200;2023-03-01T07:36:31;98590.22;;;17.85;34.50
50057;BME280;36875;49.468;11.200;2023-03-01T07:38:57;98582.59;;;17.71;34.53
50057;BME280;36875;49.468;11.200;2023-03-01T07:41:23;98582.09;;;17.69;34.89
50057;BME280;36875;49.468;11.200;2023-03-01T07:43:48;98584.25;;;17.72;34.86
50057;BME280;36875;49.468;11.200;2023-03-01T07:46:14;98583.97;;;17.79;34.89
50057;BME280;36875;49.468;11.200;2023-03-01T07:48:39;98571.97;;;17.85;35.13
50057;BME280;36875;49.468;11.200;2023-03-01T07:51:05;98565.72;;;17.85;35.54
50057;BME280;36875;49.468;11.200;2023-03-01T07:53:33;98574.09;;;17.94;35.19
50057;BME280;36875;49.468;11.200;2023-03-01T07:56:03;98566.69;;;17.99;35.32
50057;BME280;36875;49.468;11.200;2023-03-01T07:58:28;98560.97;;;18.01;35.11
50057;BME280;36875;49.468;11.200;2023-03-01T08:00:54;98580.78;;;18.11;35.38
50057;BME280;36875;49.468;11.200;2023-03-01T08:03:19;98588.13;;;18.16;35.30
50057;BME280;36875;49.468;11.200;2023-03-01T08:05:45;98582.09;;;18.19;35.33
50057;BME280;36875;49.468;11.200;2023-03-01T08:08:10;98579.91;;;18.21;35.11
50057;BME280;36875;49.468;11.200;2023-03-01T08:10:37;98585.84;;;18.28;35.52
50057;BME280;36875;49.468;11.200;2023-03-01T08:13:02;98582.81;;;18.35;34.95
50057;BME280;36875;49.468;11.200;2023-03-01T08:15:28;98584.75;;;18.35;35.25
50057;BME280;36875;49.468;11.200;2023-03-01T08:17:53;98572.16;;;18.39;35.37
50057;BME280;36875;49.468;11.200;2023-03-01T08:20:19;98583.59;;;18.41;35.40
50057;BME280;36875;49.468;11.200;2023-03-01T08:22:44;98576.19;;;18.46;35.45
50057;BME280;36875;49.468;11.200;2023-03-01T08:25:10;98569.94;;;18.46;34.95
50057;BME280;36875;49.468;11.200;2023-03-01T08:27:37;98569.38;;;18.49;35.39
50057;BME280;36875;49.468;11.200;2023-03-01T08:30:03;98561.72;;;18.51;35.45
50057;BME280;36875;49.468;11.200;2023-03-01T08:32:28;98557.31;;;18.55;35.03
50057;BME280;36875;49.468;11.200;2023-03-01T08:34:54;98555.13;;;18.57;35.12
50057;BME280;36875;49.468;11.200;2023-03-01T08:37:19;98558.38;;;18.59;35.39
50057;BME280;36875;49.468;11.200;2023-03-01T08:39:46;98548.03;;;18.56;34.99
50057;BME280;36875;49.468;11.200;2023-03-01T08:42:11;98549.63;;;18.62;35.00
50057;BME280;36875;49.468;11.200;2023-03-01T08:44:38;98549.63;;;18.62;34.80
50057;BME280;36875;49.468;11.200;2023-03-01T08:47:04;98538.44;;;18.64;35.21
50057;BME280;36875;49.468;11.200;2023-03-01T08:49:30;98537.84;;;18.67;35.27
50057;BME280;36875;49.468;11.200;2023-03-01T08:51:57;98543.53;;;18.71;35.07
50057;BME280;36875;49.468;11.200;2023-03-01T08:54:23;98532.41;;;18.67;35.26
50057;BME280;36875;49.468;11.200;2023-03-01T08:56:49;98536.19;;;18.71;34.99
50057;BME280;36875;49.468;11.200;2023-03-01T08:59:15;98529.91;;;18.71;35.13
50057;BME280;36875;49.468;11.200;2023-03-01T09:01:43;98535.34;;;18.71;34.76
50057;BME280;36875;49.468;11.200;2023-03-01T09:04:08;98537.81;;;18.72;34.75
50057;BME280;36875;49.468;11.200;2023-03-01T09:06:34;98531.53;;;18.72;35.10
50057;BME280;36875;49.468;11.200;2023-03-01T09:09:00;98529.63;;;18.72;34.84
50057;BME280;36875;49.468;11.200;2023-03-01T09:11:27;98521.72;;;18.71;34.95
50057;BME280;36875;49.468;11.200;2023-03-01T09:13:53;98526.63;;;18.74;35.17
50057;BME280;36875;49.468;11.200;2023-03-01T09:16:20;98523.09;;;18.73;34.91
50057;BME280;36875;49.468;11.200;2023-03-01T09:18:50;98520.34;;;18.73;35.15
50057;BME280;36875;49.468;11.200;2023-03-01T09:21:17;98523.38;;;18.72;34.66
50057;BME280;36875;49.468;11.200;2023-03-01T09:23:45;98510.53;;;18.72;34.96
50057;BME280;36875;49.468;11.200;2023-03-01T09:26:12;98523.88;;;18.74;35.12
50057;BME280;36875;49.468;11.200;2023-03-01T09:28:38;98515.72;;;18.74;34.68
50057;BME280;36875;49.468;11.200;2023-03-01T09:31:06;98512.47;;;18.72;34.92
50057;BME280;36875;49.468;11.200;2023-03-01T09:33:32;98514.91;;;18.73;34.72
50057;BME280;36875;49.468;11.200;2023-03-01T09:36:01;98509.13;;;18.75;35.02
50057;BME280;36875;49.468;11.200;2023-03-01T09:38:27;98507.25;;;18.75;34.63
50057;BME280;36875;49.468;11.200;2023-03-01T09:40:53;98508.84;;;18.76;34.68
50057;BME280;36875;49.468;11.200;2023-03-01T09:43:24;98511.31;;;18.78;34.82
50057;BME280;36875;49.468;11.200;2023-03-01T09:45:56;98510.75;;;18.81;34.57
50057;BME280;36875;49.468;11.200;2023-03-01T09:48:26;98506.91;;;18.82;34.58
50057;BME280;36875;49.468;11.200;2023-03-01T09:50:54;98502.28;;;18.82;34.67
50057;BME280;36875;49.468;11.200;2023-03-01T09:53:23;98496.88;;;18.77;34.66
50057;BME280;36875;49.468;11.200;2023-03-01T09:55:55;98502.28;;;18.82;34.51
50057;BME280;36875;49.468;11.200;2023-03-01T09:58:41;98501.47;;;18.82;35.05
50057;BME280;36875;49.468;11.200;2023-03-01T10:01:29;98501.47;;;18.82;34.86
50057;BME280;36875;49.468;11.200;2023-03-01T10:04:37;98500.38;;;18.83;34.96
50057;BME280;36875;49.468;11.200;2023-03-01T10:07:16;98502.28;;;18.82;34.88
50057;BME280;36875;49.468;11.200;2023-03-01T10:09:45;98500.91;;;18.85;34.66
50057;BME280;36875;49.468;11.200;2023-03-01T10:12:16;98496.00;;;18.82;34.43
50057;BME280;36875;49.468;11.200;2023-03-01T10:14:48;98496.25;;;18.85;34.66
50057;BME280;36875;49.468;11.200;2023-03-01T10:17:24;98473.09;;;18.83;34.45
50057;BME280;36875;49.468;11.200;2023-03-01T10:19:51;98487.78;;;18.87;34.63
50057;BME280;36875;49.468;11.200;2023-03-01T10:22:19;98488.06;;;18.85;34.51
50057;BME280;36875;49.468;11.200;2023-03-01T10:24:51;98488.31;;;18.89;34.26
50057;BME280;36875;49.468;11.200;2023-03-01T10:27:21;98485.28;;;18.91;34.83
50057;BME280;36875;49.468;11.200;2023-03-01T10:29:51;98477.38;;;18.89;34.73
50057;BME280;36875;49.468;11.200;2023-03-01T10:32:20;98479.03;;;18.90;34.56
50057;BME280;36875;49.468;11.200;2023-03-01T10:34:47;98488.53;;;18.93;34.25
50057;BME280;36875;49.468;11.200;2023-03-01T10:37:15;98481.47;;;18.92;34.36
50057;BME280;36875;49.468;11.200;2023-03-01T10:40:01;98470.84;;;18.90;34.03
50057;BME280;36875;49.468;11.200;2023-03-01T10:42:32;98473.50;;;19.19;33.84
50057;BME280;36875;49.468;11.200;2023-03-01T10:45:15;98458.28;;;19.37;33.52
50057;BME280;36875;49.468;11.200;2023-03-01T10:47:41;98465.22;;;19.49;33.69
50057;BME280;36875;49.468;11.200;2023-03-01T10:50:18;98459.69;;;19.54;33.25
50057;BME280;36875;49.468;11.200;2023-03-01T10:52:57;98462.31;;;19.59;33.41
50057;BME280;36875;49.468;11.200;2023-03-01T10:55:28;98449.19;;;19.61;33.17
50057;BME280;36875;49.468;11.200;2023-03-01T10:58:08;98426.81;;;19.59;33.13
50057;BME280;36875;49.468;11.200;2023-03-01T11:00:45;98427.56;;;19.64;33.13
50057;BME280;36875;49.468;11.200;2023-03-01T11:03:12;98416.34;;;19.66;33.04
50057;BME280;36875;49.468;11.200;2023-03-01T11:05:51;98410.88;;;19.66;33.32
50057;BME280;36875;49.468;11.200;2023-03-01T11:08:29;98395.31;;;19.67;32.93
50057;BME280;36875;49.468;11.200;2023-03-01T11:11:04;98409.50;;;19.69;33.10
50057;BME280;36875;49.468;11.200;2023-03-01T11:13:29;98397.31;;;19.61;33.50
50057;BME280;36875;49.468;11.200;2023-03-01T11:15:59;98402.41;;;19.68;33.08
50057;BME280;36875;49.468;11.200;2023-03-01T11:18:25;98390.69;;;19.67;33.55
50057;BME280;36875;49.468;11.200;2023-03-01T11:20:53;98389.66;;;19.63;33.38
50057;BME280;36875;49.468;11.200;2023-03-01T11:23:20;98387.28;;;19.56;33.33
50057;BME280;36875;49.468;11.200;2023-03-01T11:25:51;98376.09;;;19.58;33.61
50057;BME280;36875;49.468;11.200;2023-03-01T11:28:20;98373.47;;;19.67;34.08
50057;BME280;36875;49.468;11.200;2023-03-01T11:30:50;98376.13;;;19.72;33.82
50057;BME280;36875;49.468;11.200;2023-03-01T11:33:27;98374.97;;;19.78;34.00
50057;BME280;36875;49.468;11.200;2023-03-01T11:36:02;98376.53;;;19.65;34.14
50057;BME280;36875;49.468;11.200;2023-03-01T11:38:34;98373.69;;;19.70;33.94
50057;BME280;36875;49.468;11.200;2023-03-01T11:41:04;98364.94;;;19.73;33.92
50057;BME280;36875;49.468;11.200;2023-03-01T11:43:47;98356.16;;;19.76;34.40
50057;BME280;36875;49.468;11.200;2023-03-01T11:46:41;98359.97;;;19.75;34.04
50057;BME280;36875;49.468;11.200;2023-03-01T11:52:11;98354.16;;;19.63;33.85
50057;BME280;36875;49.468;11.200;2023-03-01T11:54:47;98339.69;;;19.62;34.19
50057;BME280;36875;49.468;11.200;2023-03-01T11:57:31;98335.06;;;19.63;34.30
50057;BME280;36875;49.468;11.200;2023-03-01T12:00:12;98323.69;;;19.56;33.87
50057;BME280;36875;49.468;11.200;2023-03-01T12:02:57;98330.97;;;19.60;34.38
50057;BME280;36875;49.468;11.200;2023-03-01T12:06:07;98328.75;;;19.62;34.06
50057;BME280;36875;49.468;11.200;2023-03-01T12:08:41;98330.97;;;19.60;34.15
50057;BME280;36875;49.468;11.200;2023-03-01T12:11:19;98313.22;;;19.63;34.11
50057;BME280;36875;49.468;11.200;2023-03-01T12:14:20;98313.72;;;19.65;34.48
50057;BME280;36875;49.468;11.200;2023-03-01T12:17:10;98303.31;;;19.67;34.50
50057;BME280;36875;49.468;11.200;2023-03-01T12:19:51;98304.69;;;19.64;34.50
50057;BME280;36875;49.468;11.200;2023-03-01T12:22:29;98304.47;;;19.61;34.44
50057;BME280;36875;49.468;11.200;2023-03-01T12:28:18;98299.38;;;19.40;34.32
50057;BME280;36875;49.468;11.200;2023-03-01T12:31:11;98279.94;;;19.28;34.58
50057;BME280;36875;49.468;11.200;2023-03-01T12:33:49;98288.13;;;19.28;34.44
50057;BME280;36875;49.468;11.200;2023-03-01T12:36:35;98283.19;;;19.30;34.52
50057;BME280;36875;49.468;11.200;2023-03-01T12:39:16;98285.28;;;19.33;34.76
50057;BME280;36875;49.468;11.200;2023-03-01T12:41:55;98276.66;;;19.26;34.58
50057;BME280;36875;49.468;11.200;2023-03-01T12:44:42;98268.59;;;19.21;34.90
50057;BME280;36875;49.468;11.200;2023-03-01T12:47:19;98263.16;;;19.35;34.62
50057;BME280;36875;49.468;11.200;2023-03-01T12:49:51;98268.38;;;19.50;34.74
50057;BME280;36875;49.468;11.200;2023-03-01T12:52:22;98262.00;;;19.55;34.67
50057;BME280;36875;49.468;11.200;2023-03-01T12:54:49;98263.13;;;19.54;34.47
50057;BME280;36875;49.468;11.200;2023-03-01T12:57:21;98249.66;;;19.43;34.46
50057;BME280;36875;49.468;11.200;2023-03-01T12:59:59;98253.59;;;19.37;34.66
50057;BME280;36875;49.468;11.200;2023-03-01T13:02:37;98259.63;;;19.34;34.55
50057;BME280;36875;49.468;11.200;2023-03-01T13:05:20;98256.47;;;19.27;34.86